sensor_id;sensor_type;location;lat;lon;timestamp;P1;durP1;ratioP1;P2;durP2;ratioP2
6133;SDS011;3098;42.678;23.364;2023-07-31T00:00:40;4.43;;;3.08;;
6133;SDS011;3098;42.678;23.364;2023-07-31T00:03:07;6.43;;;3.03;;
6133;SDS011;3098;42.678;23.364;2023-07-31T00:05:35;3.65;;;2.70;;
6133;SDS011;3098;42.678;23.364;2023-07-31T00:08:02;6.05;;;3.33;;
6133;SDS011;3098;42.678;23.364;2023-07-31T00:10:29;5.38;;;3.40;;
6133;SDS011;3098;42.678;23.364;2023-07-31T00:12:56;5.28;;;3.20;;
6133;SDS011;3098;42.678;23.364;2023-07-31T00:15:24;4.70;;;3.05;;
6133;SDS011;3098;42.678;23.364;2023-07-31T00:17:51;5.43;;;3.22;;
6133;SDS011;3098;42.678;23.364;2023-07-31T00:20:19;5.53;;;3.60;;
6133;SDS011;3098;42.678;23.364;2023-07-31T00:22:46;4.75;;;2.90;;
6133;SDS011;3098;42.678;23.364;2023-07-31T00:25:13;5.97;;;3.67;;
6133;SDS011;3098;42.678;23.364;2023-07-31T00:27:40;4.97;;;3.33;;
6133;SDS011;3098;42.678;23.364;2023-07-31T00:30:10;6.10;;;3.05;;
6133;SDS011;3098;42.678;23.364;2023-07-31T00:32:38;6.70;;;3.70;;
6133;SDS011;3098;42.678;23.364;2023-07-31T00:35:05;7.18;;;3.67;;
6133;SDS011;3098;42.678;23.364;2023-07-31T00:37:32;6.05;;;3.42;;
6133;SDS011;3098;42.678;23.364;2023-07-31T00:39:59;4.60;;;3.25;;
6133;SDS011;3098;42.678;23.364;2023-07-31T00:42:28;6.32;;;3.67;;
6133;SDS011;3098;42.678;23.364;2023-07-31T00:44:55;5.57;;;3.60;;
6133;SDS011;3098;42.678;23.364;2023-07-31T00:47:22;5.50;;;3.55;;
6133;SDS011;3098;42.678;23.364;2023-07-31T00:49:50;5.47;;;4.30;;
6133;SDS011;3098;42.678;23.364;2023-07-31T00:52:18;5.63;;;3.83;;
6133;SDS011;3098;42.678;23.364;2023-07-31T00:54:45;5.18;;;4.00;;
6133;SDS011;3098;42.678;23.364;2023-07-31T00:57:12;6.88;;;4.20;;
6133;SDS011;3098;42.678;23.364;2023-07-31T00:59:39;7.20;;;4.53;;
6133;SDS011;3098;42.678;23.364;2023-07-31T01:02:06;8.07;;;4.70;;
6133;SDS011;3098;42.678;23.364;2023-07-31T01:04:34;7.60;;;5.47;;
6133;SDS011;3098;42.678;23.364;2023-07-31T01:07:03;10.73;;;5.82;;
6133;SDS011;3098;42.678;23.364;2023-07-31T01:09:40;10.75;;;6.45;;
6133;SDS011;3098;42.678;23.364;2023-07-31T01:12:12;18.67;;;6.93;;
6133;SDS011;3098;42.678;23.364;2023-07-31T01:14:50;9.70;;;6.75;;
6133;SDS011;3098;42.678;23.364;2023-07-31T01:17:17;12.82;;;7.78;;
6133;SDS011;3098;42.678;23.364;2023-07-31T01:19:44;12.43;;;7.82;;
6133;SDS011;3098;42.678;23.364;2023-07-31T01:22:23;10.20;;;6.88;;
6133;SDS011;3098;42.678;23.364;2023-07-31T01:25:11;15.07;;;8.80;;
6133;SDS011;3098;42.678;23.364;2023-07-31T01:27:53;19.80;;;8.23;;
6133;SDS011;3098;42.678;23.364;2023-07-31T01:30:29;12.98;;;8.52;;
6133;SDS011;3098;42.678;23.364;2023-07-31T01:33:00;15.20;;;9.73;;
6133;SDS011;3098;42.678;23.364;2023-07-31T01:35:31;17.48;;;10.85;;
6133;SDS011;3098;42.678;23.364;2023-07-31T01:37:59;15.23;;;9.85;;
6133;SDS011;3098;42.678;23.364;2023-07-31T01:40:26;19.13;;;10.48;;
6133;SDS011;3098;42.678;23.364;2023-07-31T01:42:54;17.95;;;10.70;;
6133;SDS011;3098;42.678;23.364;2023-07-31T01:45:21;18.92;;;11.10;;
6133;SDS011;3098;42.678;23.364;2023-07-31T01:47:49;16.20;;;10.77;;
6133;SDS011;3098;42.678;23.364;2023-07-31T01:50:16;18.98;;;12.32;;
6133;SDS011;3098;42.678;23.364;2023-07-31T01:52:42;20.05;;;12.02;;
6133;SDS011;3098;42.678;23.364;2023-07-31T01:55:09;20.65;;;11.20;;
6133;SDS011;3098;42.678;23.364;2023-07-31T01:57:36;22.20;;;13.00;;
6133;SDS011;3098;42.678;23.364;2023-07-31T02:00:06;21.00;;;12.95;;
6133;SDS011;3098;42.678;23.364;2023-07-31T02:02:33;24.20;;;14.50;;
6133;SDS011;3098;42.678;23.364;2023-07-31T02:05:00;22.92;;;13.88;;
6133;SDS011;3098;42.678;23.364;2023-07-31T02:07:27;25.63;;;14.02;;
6133;SDS011;3098;42.678;23.364;2023-07-31T02:09:54;26.90;;;14.93;;
6133;SDS011;3098;42.678;23.364;2023-07-31T02:12:22;26.55;;;14.40;;
6133;SDS011;3098;42.678;23.364;2023-07-31T02:14:49;23.58;;;14.15;;
6133;SDS011;3098;42.678;23.364;2023-07-31T02:17:17;23.05;;;14.50;;
6133;SDS011;3098;42.678;23.364;2023-07-31T02:19:44;25.27;;;14.77;;
6133;SDS011;3098;42.678;23.364;2023-07-31T02:22:11;25.67;;;14.35;;
6133;SDS011;3098;42.678;23.364;2023-07-31T02:24:37;24.17;;;14.35;;
6133;SDS011;3098;42.678;23.364;2023-07-31T02:27:05;25.35;;;14.77;;
6133;SDS011;3098;42.678;23.364;2023-07-31T02:29:32;29.92;;;15.70;;
6133;SDS011;3098;42.678;23.364;2023-07-31T02:31:59;24.42;;;14.68;;
6133;SDS011;3098;42.678;23.364;2023-07-31T02:34:27;25.02;;;15.02;;
6133;SDS011;3098;42.678;23.364;2023-07-31T02:36:54;28.77;;;16.48;;
6133;SDS011;3098;42.678;23.364;2023-07-31T02:39:21;29.75;;;16.05;;
6133;SDS011;3098;42.678;23.364;2023-07-31T02:41:48;27.35;;;14.82;;
6133;SDS011;3098;42.678;23.364;2023-07-31T02:44:15;24.10;;;15.15;;
6133;SDS011;3098;42.678;23.364;2023-07-31T02:46:41;28.63;;;15.70;;
6133;SDS011;3098;42.678;23.364;2023-07-31T02:49:08;24.65;;;14.82;;
6133;SDS011;3098;42.678;23.364;2023-07-31T02:51:37;34.80;;;19.33;;
6133;SDS011;3098;42.678;23.364;2023-07-31T02:54:04;24.17;;;15.05;;
6133;SDS011;3098;42.678;23.364;2023-07-31T02:56:31;24.23;;;15.27;;
6133;SDS011;3098;42.678;23.364;2023-07-31T02:58:58;25.60;;;15.65;;
6133;SDS011;3098;42.678;23.364;2023-07-31T03:01:25;25.48;;;15.93;;
6133;SDS011;3098;42.678;23.364;2023-07-31T03:03:52;23.17;;;14.63;;
6133;SDS011;3098;42.678;23.364;2023-07-31T03:06:19;25.85;;;15.30;;
6133;SDS011;3098;42.678;23.364;2023-07-31T03:08:48;22.50;;;14.55;;
6133;SDS011;3098;42.678;23.364;2023-07-31T03:11:14;32.22;;;16.98;;
6133;SDS011;3098;42.678;23.364;2023-07-31T03:13:41;28.73;;;16.30;;
6133;SDS011;3098;42.678;23.364;2023-07-31T03:16:08;24.00;;;15.20;;
6133;SDS011;3098;42.678;23.364;2023-07-31T03:18:35;26.98;;;15.40;;
6133;SDS011;3098;42.678;23.364;2023-07-31T03:21:02;25.55;;;15.18;;
6133;SDS011;3098;42.678;23.364;2023-07-31T03:23:29;28.50;;;15.43;;
6133;SDS011;3098;42.678;23.364;2023-07-31T03:25:57;24.55;;;14.98;;
6133;SDS011;3098;42.678;23.364;2023-07-31T03:28:25;24.98;;;15.35;;
6133;SDS011;3098;42.678;23.364;2023-07-31T03:30:52;25.15;;;14.77;;
6133;SDS011;3098;42.678;23.364;2023-07-31T03:33:19;26.52;;;14.15;;
6133;SDS011;3098;42.678;23.364;2023-07-31T03:35:46;20.45;;;13.88;;
6133;SDS011;3098;42.678;23.364;2023-07-31T03:38:13;25.75;;;15.27;;
6133;SDS011;3098;42.678;23.364;2023-07-31T03:40:40;23.48;;;15.25;;
6133;SDS011;3098;42.678;23.364;2023-07-31T03:43:09;25.52;;;15.05;;
6133;SDS011;3098;42.678;23.364;2023-07-31T03:45:36;31.52;;;15.32;;
6133;SDS011;3098;42.678;23.364;2023-07-31T03:48:03;23.08;;;14.88;;
6133;SDS011;3098;42.678;23.364;2023-07-31T03:50:30;28.08;;;15.57;;
6133;SDS011;3098;42.678;23.364;2023-07-31T03:52:57;29.42;;;16.65;;
6133;SDS011;3098;42.678;23.364;2023-07-31T03:55:24;25.13;;;14.07;;
6133;SDS011;3098;42.678;23.364;2023-07-31T03:57:52;26.05;;;15.85;;
6133;SDS011;3098;42.678;23.364;2023-07-31T04:00:21;23.58;;;14.20;;
6133;SDS011;3098;42.678;23.364;2023-07-31T04:02:49;27.77;;;15.68;;
6133;SDS011;3098;42.678;23.364;2023-07-31T04:05:16;27.05;;;15.82;;
6133;SDS011;3098;42.678;23.364;2023-07-31T04:07:43;23.80;;;14.70;;
6133;SDS011;3098;42.678;23.364;2023-07-31T04:10:10;28.33;;;15.32;;
6133;SDS011;3098;42.678;23.364;2023-07-31T04:12:37;28.50;;;15.15;;
6133;SDS011;3098;42.678;23.364;2023-07-31T04:15:04;26.35;;;15.35;;
6133;SDS011;3098;42.678;23.364;2023-07-31T04:17:34;29.38;;;16.75;;
6133;SDS011;3098;42.678;23.364;2023-07-31T04:20:01;27.75;;;15.45;;
6133;SDS011;3098;42.678;23.364;2023-07-31T04:22:28;26.40;;;14.90;;
6133;SDS011;3098;42.678;23.364;2023-07-31T04:24:56;27.08;;;15.43;;
6133;SDS011;3098;42.678;23.364;2023-07-31T04:27:23;28.33;;;14.77;;
6133;SDS011;3098;42.678;23.364;2023-07-31T04:29:50;29.08;;;15.80;;
6133;SDS011;3098;42.678;23.364;2023-07-31T04:32:17;27.85;;;15.77;;
6133;SDS011;3098;42.678;23.364;2023-07-31T04:34:46;29.30;;;16.17;;
6133;SDS011;3098;42.678;23.364;2023-07-31T04:37:13;26.55;;;15.15;;
6133;SDS011;3098;42.678;23.364;2023-07-31T04:39:40;26.63;;;15.18;;
6133;SDS011;3098;42.678;23.364;2023-07-31T04:42:07;29.30;;;15.75;;
6133;SDS011;3098;42.678;23.364;2023-07-31T04:44:34;31.60;;;16.10;;
6133;SDS011;3098;42.678;23.364;2023-07-31T04:47:02;29.25;;;15.18;;
6133;SDS011;3098;42.678;23.364;2023-07-31T04:49:31;25.80;;;14.40;;
6133;SDS011;3098;42.678;23.364;2023-07-31T04:51:59;28.65;;;15.07;;
6133;SDS011;3098;42.678;23.364;2023-07-31T04:54:27;27.58;;;15.10;;
6133;SDS011;3098;42.678;23.364;2023-07-31T04:56:55;31.15;;;14.82;;
6133;SDS011;3098;42.678;23.364;2023-07-31T04:59:22;28.58;;;15.80;;
6133;SDS011;3098;42.678;23.364;2023-07-31T05:01:49;27.70;;;14.52;;
6133;SDS011;3098;42.678;23.364;2023-07-31T05:04:16;23.73;;;14.10;;
6133;SDS011;3098;42.678;23.364;2023-07-31T05:06:43;25.92;;;13.93;;
6133;SDS011;3098;42.678;23.364;2023-07-31T05:09:12;22.10;;;13.77;;
6133;SDS011;3098;42.678;23.364;2023-07-31T05:11:38;26.35;;;13.82;;
6133;SDS011;3098;42.678;23.364;2023-07-31T05:14:08;18.88;;;12.52;;
6133;SDS011;3098;42.678;23.364;2023-07-31T05:16:36;20.60;;;13.48;;
6133;SDS011;3098;42.678;23.364;2023-07-31T05:19:04;20.45;;;12.65;;
6133;SDS011;3098;42.678;23.364;2023-07-31T05:21:31;16.45;;;10.88;;
6133;SDS011;3098;42.678;23.364;2023-07-31T05:23:59;19.13;;;12.30;;
6133;SDS011;3098;42.678;23.364;2023-07-31T05:26:30;17.20;;;11.35;;
6133;SDS011;3098;42.678;23.364;2023-07-31T05:28:57;17.70;;;11.55;;
6133;SDS011;3098;42.678;23.364;2023-07-31T05:31:25;19.65;;;11.07;;
6133;SDS011;3098;42.678;23.364;2023-07-31T05:33:53;28.60;;;10.45;;
6133;SDS011;3098;42.678;23.364;2023-07-31T05:36:20;15.93;;;10.43;;
6133;SDS011;3098;42.678;23.364;2023-07-31T05:38:48;14.32;;;10.15;;
6133;SDS011;3098;42.678;23.364;2023-07-31T05:41:16;15.32;;;9.85;;
6133;SDS011;3098;42.678;23.364;2023-07-31T05:43:45;19.00;;;9.77;;
6133;SDS011;3098;42.678;23.364;2023-07-31T05:46:12;14.85;;;9.95;;
6133;SDS011;3098;42.678;23.364;2023-07-31T05:48:41;14.65;;;9.70;;
6133;SDS011;3098;42.678;23.364;2023-07-31T05:51:09;13.15;;;9.38;;
6133;SDS011;3098;42.678;23.364;2023-07-31T05:53:37;15.88;;;9.35;;
6133;SDS011;3098;42.678;23.364;2023-07-31T05:56:05;13.13;;;7.80;;
6133;SDS011;3098;42.678;23.364;2023-07-31T05:58:33;15.45;;;8.85;;
6133;SDS011;3098;42.678;23.364;2023-07-31T06:01:03;10.95;;;7.03;;
6133;SDS011;3098;42.678;23.364;2023-07-31T06:03:30;12.60;;;8.40;;
6133;SDS011;3098;42.678;23.364;2023-07-31T06:05:59;13.75;;;7.60;;
6133;SDS011;3098;42.678;23.364;2023-07-31T06:08:26;9.85;;;6.90;;
6133;SDS011;3098;42.678;23.364;2023-07-31T06:10:54;12.30;;;7.05;;
6133;SDS011;3098;42.678;23.364;2023-07-31T06:13:22;11.73;;;7.18;;
6133;SDS011;3098;42.678;23.364;2023-07-31T06:15:49;11.88;;;6.82;;
6133;SDS011;3098;42.678;23.364;2023-07-31T06:18:19;10.23;;;6.70;;
6133;SDS011;3098;42.678;23.364;2023-07-31T06:20:47;9.55;;;6.85;;
6133;SDS011;3098;42.678;23.364;2023-07-31T06:23:18;10.00;;;6.28;;
6133;SDS011;3098;42.678;23.364;2023-07-31T06:25:46;8.85;;;5.15;;
6133;SDS011;3098;42.678;23.364;2023-07-31T06:28:15;7.43;;;4.90;;
6133;SDS011;3098;42.678;23.364;2023-07-31T06:30:42;9.30;;;5.25;;
6133;SDS011;3098;42.678;23.364;2023-07-31T06:33:11;9.32;;;4.97;;
6133;SDS011;3098;42.678;23.364;2023-07-31T06:35:46;10.23;;;5.00;;
6133;SDS011;3098;42.678;23.364;2023-07-31T06:38:19;5.70;;;3.88;;
6133;SDS011;3098;42.678;23.364;2023-07-31T06:40:48;5.60;;;4.30;;
6133;SDS011;3098;42.678;23.364;2023-07-31T06:43:17;5.97;;;4.03;;
6133;SDS011;3098;42.678;23.364;2023-07-31T06:45:45;6.75;;;4.18;;
6133;SDS011;3098;42.678;23.364;2023-07-31T06:48:15;11.90;;;5.68;;
6133;SDS011;3098;42.678;23.364;2023-07-31T06:50:42;5.60;;;4.00;;
6133;SDS011;3098;42.678;23.364;2023-07-31T06:53:13;8.20;;;4.53;;
6133;SDS011;3098;42.678;23.364;2023-07-31T06:55:41;4.95;;;4.00;;
6133;SDS011;3098;42.678;23.364;2023-07-31T06:58:09;10.40;;;3.97;;
6133;SDS011;3098;42.678;23.364;2023-07-31T07:00:38;5.40;;;3.95;;
6133;SDS011;3098;42.678;23.364;2023-07-31T07:03:06;5.82;;;4.32;;
6133;SDS011;3098;42.678;23.364;2023-07-31T07:05:36;4.32;;;3.42;;
6133;SDS011;3098;42.678;23.364;2023-07-31T07:08:05;7.43;;;3.53;;
6133;SDS011;3098;42.678;23.364;2023-07-31T07:10:36;4.88;;;3.58;;
6133;SDS011;3098;42.678;23.364;2023-07-31T07:13:04;4.95;;;3.47;;
6133;SDS011;3098;42.678;23.364;2023-07-31T07:15:32;11.73;;;4.00;;
6133;SDS011;3098;42.678;23.364;2023-07-31T07:18:00;6.30;;;3.80;;
6133;SDS011;3098;42.678;23.364;2023-07-31T07:20:28;4.82;;;3.58;;
6133;SDS011;3098;42.678;23.364;2023-07-31T07:22:57;5.20;;;3.75;;
6133;SDS011;3098;42.678;23.364;2023-07-31T07:25:24;6.00;;;4.25;;
6133;SDS011;3098;42.678;23.364;2023-07-31T07:27:55;4.22;;;3.25;;
6133;SDS011;3098;42.678;23.364;2023-07-31T07:30:23;8.82;;;3.20;;
6133;SDS011;3098;42.678;23.364;2023-07-31T07:32:52;7.25;;;3.75;;
6133;SDS011;3098;42.678;23.364;2023-07-31T07:35:19;6.78;;;3.75;;
6133;SDS011;3098;42.678;23.364;2023-07-31T07:37:48;7.95;;;3.92;;
6133;SDS011;3098;42.678;23.364;2023-07-31T07:40:17;4.18;;;3.33;;
6133;SDS011;3098;42.678;23.364;2023-07-31T07:42:44;5.28;;;3.20;;
6133;SDS011;3098;42.678;23.364;2023-07-31T07:45:13;8.07;;;3.50;;
6133;SDS011;3098;42.678;23.364;2023-07-31T07:47:41;5.88;;;3.50;;
6133;SDS011;3098;42.678;23.364;2023-07-31T07:50:08;3.90;;;3.13;;
6133;SDS011;3098;42.678;23.364;2023-07-31T07:52:36;3.95;;;3.28;;
6133;SDS011;3098;42.678;23.364;2023-07-31T07:55:04;4.50;;;3.50;;
6133;SDS011;3098;42.678;23.364;2023-07-31T07:57:33;4.68;;;3.47;;
6133;SDS011;3098;42.678;23.364;2023-07-31T08:00:01;6.07;;;3.50;;
6133;SDS011;3098;42.678;23.364;2023-07-31T08:02:33;3.80;;;2.95;;
6133;SDS011;3098;42.678;23.364;2023-07-31T08:05:00;4.25;;;2.95;;
6133;SDS011;3098;42.678;23.364;2023-07-31T08:07:28;9.18;;;3.38;;
6133;SDS011;3098;42.678;23.364;2023-07-31T08:09:56;12.57;;;4.88;;
6133;SDS011;3098;42.678;23.364;2023-07-31T08:12:23;7.30;;;2.83;;
6133;SDS011;3098;42.678;23.364;2023-07-31T08:14:50;4.15;;;3.10;;
6133;SDS011;3098;42.678;23.364;2023-07-31T08:17:17;5.95;;;3.65;;
6133;SDS011;3098;42.678;23.364;2023-07-31T08:19:47;4.40;;;3.20;;
6133;SDS011;3098;42.678;23.364;2023-07-31T08:22:15;5.15;;;3.00;;
6133;SDS011;3098;42.678;23.364;2023-07-31T08:24:42;3.58;;;2.90;;
6133;SDS011;3098;42.678;23.364;2023-07-31T08:27:10;5.35;;;3.00;;
6133;SDS011;3098;42.678;23.364;2023-07-31T08:29:38;6.03;;;3.40;;
6133;SDS011;3098;42.678;23.364;2023-07-31T08:32:06;4.40;;;3.00;;
6133;SDS011;3098;42.678;23.364;2023-07-31T08:34:34;4.90;;;3.40;;
6133;SDS011;3098;42.678;23.364;2023-07-31T08:37:03;5.75;;;3.60;;
6133;SDS011;3098;42.678;23.364;2023-07-31T08:39:31;6.65;;;3.15;;
6133;SDS011;3098;42.678;23.364;2023-07-31T08:41:58;6.05;;;3.15;;
6133;SDS011;3098;42.678;23.364;2023-07-31T08:44:26;3.55;;;2.90;;
6133;SDS011;3098;42.678;23.364;2023-07-31T08:46:57;5.28;;;3.30;;
6133;SDS011;3098;42.678;23.364;2023-07-31T08:49:25;4.88;;;2.95;;
6133;SDS011;3098;42.678;23.364;2023-07-31T08:51:53;4.50;;;3.22;;
6133;SDS011;3098;42.678;23.364;2023-07-31T08:54:25;5.50;;;3.17;;
6133;SDS011;3098;42.678;23.364;2023-07-31T08:56:55;3.58;;;3.05;;
6133;SDS011;3098;42.678;23.364;2023-07-31T08:59:25;9.90;;;4.47;;
6133;SDS011;3098;42.678;23.364;2023-07-31T09:01:57;7.70;;;3.80;;
6133;SDS011;3098;42.678;23.364;2023-07-31T09:04:31;5.10;;;3.13;;
6133;SDS011;3098;42.678;23.364;2023-07-31T09:07:02;4.75;;;3.17;;
6133;SDS011;3098;42.678;23.364;2023-07-31T09:09:33;6.35;;;3.60;;
6133;SDS011;3098;42.678;23.364;2023-07-31T09:12:01;5.82;;;3.03;;
6133;SDS011;3098;42.678;23.364;2023-07-31T09:14:32;5.25;;;3.67;;
6133;SDS011;3098;42.678;23.364;2023-07-31T09:17:04;14.77;;;3.35;;
6133;SDS011;3098;42.678;23.364;2023-07-31T09:19:33;4.65;;;3.20;;
6133;SDS011;3098;42.678;23.364;2023-07-31T09:22:04;4.32;;;3.20;;
6133;SDS011;3098;42.678;23.364;2023-07-31T09:24:35;3.90;;;2.92;;
6133;SDS011;3098;42.678;23.364;2023-07-31T09:27:03;4.57;;;2.67;;
6133;SDS011;3098;42.678;23.364;2023-07-31T09:29:31;4.13;;;3.03;;
6133;SDS011;3098;42.678;23.364;2023-07-31T09:31:58;3.67;;;2.75;;
6133;SDS011;3098;42.678;23.364;2023-07-31T09:34:30;4.07;;;3.20;;
6133;SDS011;3098;42.678;23.364;2023-07-31T09:37:04;6.65;;;3.80;;
6133;SDS011;3098;42.678;23.364;2023-07-31T09:39:32;6.72;;;3.75;;
6133;SDS011;3098;42.678;23.364;2023-07-31T09:42:24;3.63;;;3.10;;
6133;SDS011;3098;42.678;23.364;2023-07-31T09:44:54;5.68;;;3.58;;
6133;SDS011;3098;42.678;23.364;2023-07-31T09:47:34;5.55;;;3.47;;
6133;SDS011;3098;42.678;23.364;2023-07-31T09:50:05;5.75;;;3.50;;
6133;SDS011;3098;42.678;23.364;2023-07-31T09:52:34;4.70;;;3.10;;
6133;SDS011;3098;42.678;23.364;2023-07-31T09:55:07;4.63;;;3.05;;
6133;SDS011;3098;42.678;23.364;2023-07-31T09:57:34;4.43;;;3.20;;
6133;SDS011;3098;42.678;23.364;2023-07-31T10:00:07;6.57;;;3.00;;
6133;SDS011;3098;42.678;23.364;2023-07-31T10:02:37;5.10;;;3.20;;
6133;SDS011;3098;42.678;23.364;2023-07-31T10:05:06;3.05;;;2.50;;
6133;SDS011;3098;42.678;23.364;2023-07-31T10:07:37;3.85;;;2.50;;
6133;SDS011;3098;42.678;23.364;2023-07-31T10:10:08;5.68;;;2.45;;
6133;SDS011;3098;42.678;23.364;2023-07-31T10:12:37;5.28;;;2.50;;
6133;SDS011;3098;42.678;23.364;2023-07-31T10:15:08;8.27;;;2.80;;
6133;SDS011;3098;42.678;23.364;2023-07-31T10:17:37;4.30;;;2.63;;
6133;SDS011;3098;42.678;23.364;2023-07-31T10:20:05;3.97;;;2.40;;
6133;SDS011;3098;42.678;23.364;2023-07-31T10:22:36;3.33;;;2.60;;
6133;SDS011;3098;42.678;23.364;2023-07-31T10:25:07;4.90;;;2.70;;
6133;SDS011;3098;42.678;23.364;2023-07-31T10:27:36;6.45;;;2.25;;
6133;SDS011;3098;42.678;23.364;2023-07-31T10:30:06;4.70;;;2.38;;
6133;SDS011;3098;42.678;23.364;2023-07-31T10:32:36;5.78;;;2.25;;
6133;SDS011;3098;42.678;23.364;2023-07-31T10:35:08;5.43;;;2.40;;
6133;SDS011;3098;42.678;23.364;2023-07-31T10:37:36;4.65;;;2.38;;
6133;SDS011;3098;42.678;23.364;2023-07-31T10:40:10;2.67;;;1.98;;
6133;SDS011;3098;42.678;23.364;2023-07-31T10:42:45;3.05;;;1.92;;
6133;SDS011;3098;42.678;23.364;2023-07-31T10:45:14;3.58;;;2.25;;
6133;SDS011;3098;42.678;23.364;2023-07-31T10:47:57;4.85;;;2.17;;
6133;SDS011;3098;42.678;23.364;2023-07-31T10:50:27;2.70;;;2.28;;
6133;SDS011;3098;42.678;23.364;2023-07-31T10:52:59;4.00;;;2.72;;
6133;SDS011;3098;42.678;23.364;2023-07-31T10:55:30;2.35;;;2.13;;
6133;SDS011;3098;42.678;23.364;2023-07-31T10:58:08;8.82;;;2.28;;
6133;SDS011;3098;42.678;23.364;2023-07-31T11:00:37;5.55;;;1.92;;
6133;SDS011;3098;42.678;23.364;2023-07-31T11:03:08;4.20;;;2.33;;
6133;SDS011;3098;42.678;23.364;2023-07-31T11:05:41;2.60;;;2.35;;
6133;SDS011;3098;42.678;23.364;2023-07-31T11:08:12;6.10;;;2.28;;
6133;SDS011;3098;42.678;23.364;2023-07-31T11:10:45;4.82;;;2.05;;
6133;SDS011;3098;42.678;23.364;2023-07-31T11:13:15;3.17;;;2.17;;
6133;SDS011;3098;42.678;23.364;2023-07-31T11:15:44;2.53;;;2.17;;
6133;SDS011;3098;42.678;23.364;2023-07-31T11:18:12;2.42;;;1.90;;
6133;SDS011;3098;42.678;23.364;2023-07-31T11:20:42;2.83;;;2.10;;
6133;SDS011;3098;42.678;23.364;2023-07-31T11:23:11;2.55;;;2.08;;
6133;SDS011;3098;42.678;23.364;2023-07-31T11:25:39;2.30;;;2.05;;
6133;SDS011;3098;42.678;23.364;2023-07-31T11:28:09;2.30;;;1.95;;
6133;SDS011;3098;42.678;23.364;2023-07-31T11:30:38;2.63;;;1.90;;
6133;SDS011;3098;42.678;23.364;2023-07-31T11:33:08;3.40;;;2.15;;
6133;SDS011;3098;42.678;23.364;2023-07-31T11:35:42;3.35;;;2.17;;
6133;SDS011;3098;42.678;23.364;2023-07-31T11:38:11;3.35;;;2.28;;
6133;SDS011;3098;42.678;23.364;2023-07-31T11:40:43;3.65;;;2.60;;
6133;SDS011;3098;42.678;23.364;2023-07-31T11:43:13;2.53;;;2.20;;
6133;SDS011;3098;42.678;23.364;2023-07-31T11:45:44;2.95;;;2.30;;
6133;SDS011;3098;42.678;23.364;2023-07-31T11:48:21;2.90;;;2.28;;
6133;SDS011;3098;42.678;23.364;2023-07-31T11:50:52;6.32;;;2.80;;
6133;SDS011;3098;42.678;23.364;2023-07-31T11:53:22;7.93;;;3.10;;
6133;SDS011;3098;42.678;23.364;2023-07-31T11:55:53;3.78;;;2.70;;
6133;SDS011;3098;42.678;23.364;2023-07-31T11:58:23;4.25;;;2.80;;
6133;SDS011;3098;42.678;23.364;2023-07-31T12:00:53;4.05;;;2.83;;
6133;SDS011;3098;42.678;23.364;2023-07-31T12:03:21;4.03;;;2.90;;
6133;SDS011;3098;42.678;23.364;2023-07-31T12:05:49;3.13;;;2.60;;
6133;SDS011;3098;42.678;23.364;2023-07-31T12:08:20;4.22;;;2.95;;
6133;SDS011;3098;42.678;23.364;2023-07-31T12:10:49;7.50;;;2.55;;
6133;SDS011;3098;42.678;23.364;2023-07-31T12:13:19;3.47;;;2.63;;
6133;SDS011;3098;42.678;23.364;2023-07-31T12:15:53;4.53;;;2.50;;
6133;SDS011;3098;42.678;23.364;2023-07-31T12:18:22;4.30;;;2.72;;
6133;SDS011;3098;42.678;23.364;2023-07-31T12:20:53;3.63;;;2.88;;
6133;SDS011;3098;42.678;23.364;2023-07-31T12:23:22;5.85;;;2.80;;
6133;SDS011;3098;42.678;23.364;2023-07-31T12:25:59;4.15;;;3.40;;
6133;SDS011;3098;42.678;23.364;2023-07-31T12:28:28;6.18;;;4.00;;
6133;SDS011;3098;42.678;23.364;2023-07-31T12:31:02;4.38;;;3.60;;
6133;SDS011;3098;42.678;23.364;2023-07-31T12:33:32;10.57;;;3.97;;
6133;SDS011;3098;42.678;23.364;2023-07-31T12:36:01;7.85;;;4.30;;
6133;SDS011;3098;42.678;23.364;2023-07-31T12:38:29;6.38;;;4.57;;
6133;SDS011;3098;42.678;23.364;2023-07-31T12:40:57;7.13;;;4.70;;
6133;SDS011;3098;42.678;23.364;2023-07-31T12:43:25;11.75;;;4.05;;
6133;SDS011;3098;42.678;23.364;2023-07-31T12:46:05;6.82;;;4.10;;
6133;SDS011;3098;42.678;23.364;2023-07-31T12:48:35;7.43;;;4.05;;
6133;SDS011;3098;42.678;23.364;2023-07-31T12:51:05;4.95;;;3.92;;
6133;SDS011;3098;42.678;23.364;2023-07-31T12:53:33;5.25;;;3.90;;
6133;SDS011;3098;42.678;23.364;2023-07-31T12:56:03;9.02;;;4.57;;
6133;SDS011;3098;42.678;23.364;2023-07-31T12:58:31;9.93;;;4.60;;
6133;SDS011;3098;42.678;23.364;2023-07-31T13:00:59;6.82;;;4.40;;
6133;SDS011;3098;42.678;23.364;2023-07-31T13:03:30;7.28;;;4.65;;
6133;SDS011;3098;42.678;23.364;2023-07-31T13:05:58;5.85;;;4.32;;
6133;SDS011;3098;42.678;23.364;2023-07-31T13:08:25;6.47;;;4.72;;
6133;SDS011;3098;42.678;23.364;2023-07-31T13:10:53;9.77;;;4.75;;
6133;SDS011;3098;42.678;23.364;2023-07-31T13:13:21;8.27;;;5.35;;
6133;SDS011;3098;42.678;23.364;2023-07-31T13:15:48;6.93;;;4.68;;
6133;SDS011;3098;42.678;23.364;2023-07-31T13:18:16;9.70;;;4.85;;
6133;SDS011;3098;42.678;23.364;2023-07-31T13:20:46;8.00;;;5.20;;
6133;SDS011;3098;42.678;23.364;2023-07-31T13:23:14;5.35;;;4.22;;
6133;SDS011;3098;42.678;23.364;2023-07-31T13:25:42;11.73;;;4.85;;
6133;SDS011;3098;42.678;23.364;2023-07-31T13:28:09;5.65;;;4.45;;
6133;SDS011;3098;42.678;23.364;2023-07-31T13:30:37;7.97;;;4.82;;
6133;SDS011;3098;42.678;23.364;2023-07-31T13:33:06;6.07;;;4.57;;
6133;SDS011;3098;42.678;23.364;2023-07-31T13:35:34;7.35;;;4.53;;
6133;SDS011;3098;42.678;23.364;2023-07-31T13:38:03;7.38;;;4.15;;
6133;SDS011;3098;42.678;23.364;2023-07-31T13:40:31;6.53;;;4.40;;
6133;SDS011;3098;42.678;23.364;2023-07-31T13:42:58;8.38;;;4.35;;
6133;SDS011;3098;42.678;23.364;2023-07-31T13:45:26;8.23;;;4.43;;
6133;SDS011;3098;42.678;23.364;2023-07-31T13:47:53;6.28;;;4.45;;
6133;SDS011;3098;42.678;23.364;2023-07-31T13:50:20;6.53;;;4.38;;
6133;SDS011;3098;42.678;23.364;2023-07-31T13:52:48;6.38;;;3.95;;
6133;SDS011;3098;42.678;23.364;2023-07-31T13:55:17;6.13;;;3.85;;
6133;SDS011;3098;42.678;23.364;2023-07-31T13:57:45;6.63;;;4.43;;
6133;SDS011;3098;42.678;23.364;2023-07-31T14:00:14;6.38;;;4.28;;
6133;SDS011;3098;42.678;23.364;2023-07-31T14:02:42;6.35;;;3.90;;
6133;SDS011;3098;42.678;23.364;2023-07-31T14:05:10;7.13;;;3.80;;
6133;SDS011;3098;42.678;23.364;2023-07-31T14:07:39;5.13;;;4.00;;
6133;SDS011;3098;42.678;23.364;2023-07-31T14:10:08;5.80;;;4.07;;
6133;SDS011;3098;42.678;23.364;2023-07-31T14:12:39;6.35;;;3.90;;
6133;SDS011;3098;42.678;23.364;2023-07-31T14:15:07;6.60;;;4.90;;
6133;SDS011;3098;42.678;23.364;2023-07-31T14:17:34;5.05;;;4.03;;
6133;SDS011;3098;42.678;23.364;2023-07-31T14:20:01;6.32;;;4.18;;
6133;SDS011;3098;42.678;23.364;2023-07-31T14:22:28;13.75;;;4.53;;
6133;SDS011;3098;42.678;23.364;2023-07-31T14:24:58;4.72;;;3.65;;
6133;SDS011;3098;42.678;23.364;2023-07-31T14:27:26;8.77;;;4.25;;
6133;SDS011;3098;42.678;23.364;2023-07-31T14:29:55;4.85;;;3.63;;
6133;SDS011;3098;42.678;23.364;2023-07-31T14:32:23;6.65;;;3.90;;
6133;SDS011;3098;42.678;23.364;2023-07-31T14:34:52;5.88;;;4.10;;
6133;SDS011;3098;42.678;23.364;2023-07-31T14:37:21;5.97;;;4.15;;
6133;SDS011;3098;42.678;23.364;2023-07-31T14:39:48;16.00;;;4.50;;
6133;SDS011;3098;42.678;23.364;2023-07-31T14:42:16;4.60;;;3.28;;
6133;SDS011;3098;42.678;23.364;2023-07-31T14:44:44;9.10;;;3.92;;
6133;SDS011;3098;42.678;23.364;2023-07-31T14:47:14;5.18;;;3.70;;
6133;SDS011;3098;42.678;23.364;2023-07-31T14:49:41;6.25;;;3.80;;
6133;SDS011;3098;42.678;23.364;2023-07-31T14:52:09;5.25;;;3.80;;
6133;SDS011;3098;42.678;23.364;2023-07-31T14:54:36;4.95;;;3.53;;
6133;SDS011;3098;42.678;23.364;2023-07-31T14:57:05;6.05;;;4.13;;
6133;SDS011;3098;42.678;23.364;2023-07-31T14:59:32;5.03;;;3.65;;
6133;SDS011;3098;42.678;23.364;2023-07-31T15:02:00;8.70;;;4.00;;